Time;durP1;ratioP1;P1;durP2;ratioP2;P2;SDS_P1;SDS_P2;PMS_P1;PMS_P2;Temp;Humidity;BMP_temperature;BMP_pressure;BME280_temperature;BME280_humidity;BME280_pressure;Samples;Min_cycle;Max_cycle;Signal;HPM_P1;HPM_P2
2022/02/06 00:02:20;;;;;;;11.80;2.10;;;4.30;99.90;;;;;;5051465;28;20512;-68
2022/02/06 00:04:49;;;;;;;5.77;1.40;;;4.30;99.90;;;;;;5051189;28;20071;-68
2022/02/06 00:07:16;;;;;;;8.33;1.73;;;4.30;99.90;;;;;;5051356;28;20142;-68
2022/02/06 00:09:45;;;;;;;5.90;1.70;;;4.30;99.90;;;;;;5051514;28;20130;-69
2022/02/06 00:12:12;;;;;;;3.73;1.20;;;4.30;99.90;;;;;;5051725;28;20053;-68
2022/02/06 00:14:40;;;;;;;5.33;1.70;;;4.30;99.90;;;;;;5051313;28;20080;-68
2022/02/06 00:17:07;;;;;;;5.67;1.20;;;4.30;99.90;;;;;;5051184;28;20136;-68
2022/02/06 00:19:35;;;;;;;8.40;1.80;;;4.30;99.90;;;;;;5051537;28;20452;-68
2022/02/06 00:22:06;;;;;;;10.10;2.20;;;4.20;99.90;;;;;;5051364;28;20450;-68
2022/02/06 00:24:39;;;;;;;9.53;1.37;;;4.30;99.90;;;;;;5051515;28;20103;-68
2022/02/06 00:27:11;;;;;;;7.10;1.50;;;4.20;99.90;;;;;;5051236;28;20065;-68
2022/02/06 00:29:48;;;;;;;5.83;1.50;;;4.20;99.90;;;;;;5051206;28;20501;-68
2022/02/06 00:32:27;;;;;;;;;;;4.10;99.90;;;;;;5051962;28;20061;-68
2022/02/06 00:38:10;;;;;;;5.60;1.90;;;4.20;99.90;;;;;;5035481;28;20041;-68
2022/02/06 00:41:00;;;;;;;7.97;1.73;;;4.10;99.90;;;;;;5051219;28;20416;-68
2022/02/06 00:43:27;;;;;;;5.27;1.60;;;4.10;99.90;;;;;;5051218;28;20095;-68
2022/02/06 00:45:55;;;;;;;7.27;1.80;;;4.10;99.90;;;;;;5050842;28;20445;-68
2022/02/06 00:48:25;;;;;;;6.27;1.37;;;4.10;99.90;;;;;;5052275;28;20547;-69
2022/02/06 00:51:02;;;;;;;10.00;1.93;;;4.20;99.90;;;;;;5054985;28;20103;-68
2022/02/06 00:53:30;;;;;;;;;;;4.20;99.90;;;;;;5055472;28;20056;-68
2022/02/06 00:55:59;;;;;;;10.87;2.50;;;4.20;99.90;;;;;;5054907;28;19946;-68
2022/02/06 00:58:26;;;;;;;8.33;2.30;;;4.20;99.90;;;;;;5054926;28;20092;-68
2022/02/06 01:00:53;;;;;;;7.37;1.90;;;4.30;99.90;;;;;;5054793;28;20144;-68
2022/02/06 01:03:20;;;;;;;6.90;1.90;;;4.30;99.90;;;;;;5054919;28;20080;-68
2022/02/06 01:05:47;;;;;;;5.33;1.50;;;4.30;99.90;;;;;;5054554;28;20139;-68
2022/02/06 01:08:13;;;;;;;11.37;2.27;;;4.30;99.90;;;;;;5054687;28;20482;-68
2022/02/06 01:10:42;;;;;;;6.83;1.50;;;4.30;99.90;;;;;;5054755;28;20131;-68
2022/02/06 01:13:18;;;;;;;9.50;1.90;;;4.40;99.90;;;;;;5054614;28;20136;-68
2022/02/06 01:15:52;;;;;;;9.73;1.75;;;4.50;99.90;;;;;;5054565;28;20071;-68
2022/02/06 01:18:25;;;;;;;9.47;1.30;;;4.50;99.90;;;;;;5054679;28;20053;-68
2022/02/06 01:20:59;;;;;;;7.50;1.83;;;4.60;99.90;;;;;;5054911;28;20095;-69
2022/02/06 01:23:30;;;;;;;11.53;1.53;;;4.60;99.90;;;;;;5054797;28;20500;-68
2022/02/06 01:26:02;;;;;;;12.57;2.23;;;4.60;99.90;;;;;;5054308;28;20052;-68
2022/02/06 01:28:35;;;;;;;7.87;2.27;;;4.60;99.90;;;;;;5054596;28;20090;-68
2022/02/06 01:31:12;;;;;;;12.07;2.20;;;4.60;99.90;;;;;;5054295;28;20059;-68
2022/02/06 01:33:46;;;;;;;9.93;2.10;;;4.60;99.90;;;;;;5054403;28;20057;-68
2022/02/06 01:36:23;;;;;;;3.63;1.10;;;4.70;99.90;;;;;;5054118;28;20056;-68
2022/02/06 01:39:05;;;;;;;4.07;1.47;;;4.70;99.90;;;;;;5054043;28;20440;-68
2022/02/06 01:41:39;;;;;;;16.00;2.10;;;4.80;99.90;;;;;;5053900;28;20532;-68
2022/02/06 01:44:11;;;;;;;13.10;1.80;;;4.70;99.90;;;;;;5054200;28;20060;-68
2022/02/06 01:57:06;;;;;;;17.00;3.70;;;4.80;99.90;;;;;;5053943;28;20075;-68
2022/02/06 02:00:58;;;;;;;7.07;1.73;;;4.90;99.90;;;;;;5053071;28;20064;-68
2022/02/06 02:03:37;;;;;;;6.33;1.30;;;4.80;99.90;;;;;;5053906;28;20065;-68
2022/02/06 02:06:32;;;;;;;9.40;1.93;;;4.80;99.90;;;;;;5053764;28;20060;-67
2022/02/06 02:15:07;;;;;;;8.23;1.77;;;4.90;99.90;;;;;;5050520;28;20049;-67
2022/02/06 02:45:23;;;;;;;5.53;1.40;;;5.20;99.90;;;;;;5150020;27;20527;-70
2022/02/06 02:47:53;;;;;;;5.87;1.60;;;5.20;99.90;;;;;;5150631;27;20116;-70
2022/02/06 02:50:23;;;;;;;5.87;1.20;;;5.10;99.90;;;;;;5150457;27;20077;-69
2022/02/06 02:53:01;;;;;;;6.13;1.47;;;5.20;99.90;;;;;;5150279;27;20510;-69
2022/02/06 02:55:44;;;;;;;7.80;1.50;;;5.20;99.90;;;;;;5149904;27;20085;-69
2022/02/06 02:58:26;;;;;;;7.40;1.67;;;5.20;99.90;;;;;;5150011;27;20529;-69
2022/02/06 03:01:02;;;;;;;8.90;1.40;;;5.10;99.90;;;;;;5150722;27;20410;-69
2022/02/06 03:03:31;;;;;;;7.23;1.60;;;5.20;99.90;;;;;;5150125;27;20058;-69
2022/02/06 03:06:00;;;;;;;5.50;1.23;;;5.30;99.90;;;;;;5149527;27;20083;-69
2022/02/06 03:08:28;;;;;;;7.37;1.77;;;5.20;99.90;;;;;;5150003;27;20050;-69
2022/02/06 03:10:57;;;;;;;7.07;2.10;;;5.20;99.90;;;;;;5149958;27;20111;-69
2022/02/06 03:13:35;;;;;;;11.10;2.13;;;5.20;99.90;;;;;;5149912;27;20099;-69
2022/02/06 03:16:15;;;;;;;5.93;1.80;;;5.30;99.90;;;;;;5150059;27;20113;-69
2022/02/06 03:18:46;;;;;;;3.00;1.00;;;5.20;99.90;;;;;;5149679;27;20108;-69
2022/02/06 03:21:18;;;;;;;8.83;1.40;;;5.20;99.90;;;;;;5149782;27;20069;-69
2022/02/06 03:23:50;;;;;;;6.03;1.73;;;5.30;99.90;;;;;;5149528;27;20065;-69
2022/02/06 03:26:18;;;;;;;11.23;1.40;;;5.30;99.90;;;;;;5149840;27;20086;-70
2022/02/06 03:28:47;;;;;;;5.87;1.50;;;5.20;99.90;;;;;;5148824;27;20162;-69
2022/02/06 03:31:14;;;;;;;8.13;1.40;;;5.20;99.90;;;;;;5149347;27;20149;-69
2022/02/06 03:33:41;;;;;;;8.43;2.00;;;5.10;99.90;;;;;;5149254;27;20051;-69
2022/02/06 03:36:08;;;;;;;14.27;2.17;;;5.10;99.90;;;;;;5142599;27;20051;-69
2022/02/06 03:38:35;;;;;;;9.20;1.60;;;5.00;99.90;;;;;;5135439;27;20053;-69
2022/02/06 03:41:06;;;;;;;4.10;1.10;;;5.10;99.90;;;;;;5135559;27;20082;-69
2022/02/06 03:43:39;;;;;;;8.00;1.43;;;5.00;99.90;;;;;;5135471;27;20058;-69
2022/02/06 03:46:11;;;;;;;8.93;1.30;;;5.10;99.90;;;;;;5135053;27;20051;-70
2022/02/06 03:48:46;;;;;;;4.07;1.77;;;5.10;99.90;;;;;;5135226;27;20499;-69
2022/02/06 03:51:19;;;;;;;7.70;1.67;;;5.00;99.90;;;;;;5135170;27;20164;-69
2022/02/06 03:53:49;;;;;;;4.07;1.67;;;5.00;99.90;;;;;;5135323;27;20097;-69
2022/02/06 03:56:16;;;;;;;4.17;1.17;;;5.00;99.90;;;;;;5135130;27;20133;-69
2022/02/06 03:58:43;;;;;;;9.80;1.40;;;5.10;99.90;;;;;;5135371;27;20050;-70
2022/02/06 04:01:11;;;;;;;8.17;1.90;;;5.00;99.90;;;;;;5135032;27;20550;-70
2022/02/06 04:03:38;;;;;;;7.27;1.27;;;5.10;99.90;;;;;;5134915;27;20146;-69
2022/02/06 04:06:05;;;;;;;7.97;1.63;;;5.00;99.90;;;;;;5134534;27;20047;-69
2022/02/06 04:08:35;;;;;;;8.23;1.60;;;4.90;99.90;;;;;;5134754;27;20134;-69
2022/02/06 04:11:05;;;;;;;9.83;1.53;;;4.90;99.90;;;;;;5134938;27;20051;-69
2022/02/06 04:13:36;;;;;;;7.97;1.50;;;4.90;99.90;;;;;;5135421;27;20078;-69
2022/02/06 04:16:05;;;;;;;4.67;1.20;;;4.80;99.90;;;;;;5134543;27;20051;-69
2022/02/06 04:18:46;;;;;;;8.90;1.57;;;4.80;99.90;;;;;;5134884;27;20402;-69
2022/02/06 04:21:13;;;;;;;6.17;1.20;;;4.80;99.90;;;;;;5135065;27;20055;-69
2022/02/06 04:23:40;;;;;;;6.13;1.50;;;4.70;99.90;;;;;;5134369;27;20129;-69
2022/02/06 04:26:07;;;;;;;5.03;1.60;;;4.70;99.90;;;;;;5134272;27;20126;-69
2022/02/06 04:28:34;;;;;;;11.57;1.53;;;4.70;99.90;;;;;;5134549;27;20051;-69
2022/02/06 04:31:01;;;;;;;6.50;1.60;;;4.70;99.90;;;;;;5134490;27;20043;-70
2022/02/06 04:33:28;;;;;;;10.13;1.70;;;4.60;99.90;;;;;;5134406;27;20138;-69
2022/02/06 04:35:59;;;;;;;5.97;1.43;;;4.60;99.90;;;;;;5134116;27;20145;-69
2022/02/06 04:38:41;;;;;;;9.37;1.50;;;4.60;99.90;;;;;;5134469;27;20062;-69
2022/02/06 04:41:22;;;;;;;12.73;1.70;;;4.60;99.90;;;;;;5134553;27;20054;-70
2022/02/06 04:44:18;;;;;;;5.03;1.40;;;4.60;99.90;;;;;;5134501;27;20062;-70
2022/02/06 04:55:26;;;;;;;4.23;1.60;;;4.50;99.90;;;;;;5098891;27;20043;-69
2022/02/06 05:17:45;;;;;;;7.93;1.83;;;4.90;99.90;;;;;;5112331;27;20043;-69
2022/02/06 05:23:19;;;;;;;9.17;1.33;;;5.00;99.90;;;;;;5133231;27;20054;-69
2022/02/06 05:26:08;;;;;;;6.53;1.40;;;5.00;99.90;;;;;;5133150;27;20051;-69
2022/02/06 05:28:41;;;;;;;6.10;1.23;;;5.00;99.90;;;;;;5133530;27;20055;-69
2022/02/06 05:31:10;;;;;;;4.53;1.13;;;5.00;99.90;;;;;;5133136;27;20502;-70
2022/02/06 05:33:38;;;;;;;8.23;1.20;;;5.10;99.90;;;;;;5133496;27;20081;-69
2022/02/06 05:36:08;;;;;;;8.30;1.20;;;5.20;99.90;;;;;;5132967;27;20051;-69
2022/02/06 05:38:35;;;;;;;6.50;1.35;;;5.10;99.90;;;;;;5133551;27;20062;-69
2022/02/06 05:41:05;;;;;;;8.50;1.57;;;5.20;99.90;;;;;;5133191;27;20051;-69
2022/02/06 05:43:31;;;;;;;3.33;1.10;;;5.20;99.90;;;;;;5132869;27;20051;-69
2022/02/06 05:45:58;;;;;;;10.77;1.37;;;5.20;99.90;;;;;;5132862;27;20126;-69
2022/02/06 05:48:25;;;;;;;7.97;2.10;;;5.20;99.90;;;;;;5132991;27;20079;-69
2022/02/06 05:50:52;;;;;;;4.47;1.07;;;5.20;99.90;;;;;;5132909;27;20509;-69
2022/02/06 05:53:19;;;;;;;6.03;1.20;;;5.20;99.90;;;;;;5132792;27;20047;-69
2022/02/06 05:55:46;;;;;;;4.77;1.87;;;5.20;99.90;;;;;;5132501;27;20093;-69
2022/02/06 05:58:14;;;;;;;2.70;1.10;;;5.20;99.90;;;;;;5132817;27;20157;-69
2022/02/06 06:00:41;;;;;;;4.87;0.90;;;5.30;99.90;;;;;;5132758;27;20049;-69
2022/02/06 06:03:08;;;;;;;5.97;1.23;;;5.30;99.90;;;;;;5132674;27;20050;-70
2022/02/06 06:05:36;;;;;;;4.68;1.63;;;5.30;99.90;;;;;;5132248;27;20498;-69
2022/02/06 06:08:04;;;;;;;6.10;1.53;;;5.40;99.90;;;;;;5132775;27;20082;-69
2022/02/06 06:10:30;;;;;;;6.20;1.23;;;5.30;99.90;;;;;;5132521;27;20053;-69
2022/02/06 06:13:00;;;;;;;5.18;0.90;;;5.40;99.90;;;;;;5132706;27;20558;-69
2022/02/06 06:15:30;;;;;;;7.80;1.10;;;5.40;99.90;;;;;;5132513;27;20077;-69
2022/02/06 06:18:02;;;;;;;12.45;1.30;;;5.40;99.90;;;;;;5132752;27;20343;-69
2022/02/06 06:20:30;;;;;;;3.33;1.23;;;5.50;99.90;;;;;;5132474;27;20498;-69
2022/02/06 06:22:57;;;;;;;6.60;1.10;;;5.60;99.90;;;;;;5132463;28;20419;-69
2022/02/06 06:25:27;;;;;;;9.48;1.30;;;5.50;99.90;;;;;;5132008;27;20074;-69
2022/02/06 06:27:55;;;;;;;6.33;1.20;;;5.50;99.90;;;;;;5132924;27;20061;-69
2022/02/06 06:30:22;;;;;;;6.13;1.50;;;5.60;99.90;;;;;;5132892;28;20051;-69
2022/02/06 06:32:50;;;;;;;8.35;1.55;;;5.60;99.90;;;;;;5132816;28;20051;-70
2022/02/06 06:35:17;;;;;;;7.13;1.40;;;5.60;99.90;;;;;;5131882;27;20039;-69
2022/02/06 06:37:44;;;;;;;7.53;0.70;;;5.70;99.90;;;;;;5132235;28;20139;-69
2022/02/06 06:40:11;;;;;;;5.57;1.02;;;5.70;99.90;;;;;;5132662;28;20107;-70
2022/02/06 06:42:38;;;;;;;5.57;0.88;;;5.70;99.90;;;;;;5132405;28;20138;-69
2022/02/06 06:45:06;;;;;;;4.35;1.02;;;5.60;99.90;;;;;;5132021;27;20126;-70
2022/02/06 06:47:33;;;;;;;3.40;1.13;;;5.60;99.90;;;;;;5132351;28;20134;-69
2022/02/06 06:50:03;;;;;;;8.05;1.52;;;5.60;99.90;;;;;;5132275;28;20479;-70
2022/02/06 06:52:30;;;;;;;5.32;1.10;;;5.60;99.90;;;;;;5132486;28;20055;-69
2022/02/06 06:55:01;;;;;;;7.07;2.30;;;5.60;99.90;;;;;;5131790;27;20100;-69
2022/02/06 06:57:33;;;;;;;3.53;1.43;;;5.70;99.90;;;;;;5132450;28;20051;-69
2022/02/06 07:02:50;;;;;;;4.70;1.60;;;5.60;99.90;;;;;;5105943;28;20043;-69
2022/02/06 07:05:19;;;;;;;7.90;1.38;;;5.70;99.90;;;;;;5131738;27;20047;-70
2022/02/06 07:07:46;;;;;;;10.33;1.57;;;5.70;99.90;;;;;;5132013;28;20134;-71
2022/02/06 07:10:13;;;;;;;7.47;1.55;;;5.70;99.90;;;;;;5132015;27;20126;-69
2022/02/06 07:12:39;;;;;;;5.90;1.50;;;5.70;99.90;;;;;;5135623;27;20146;-69
2022/02/06 07:15:07;;;;;;;3.50;1.00;;;5.70;99.90;;;;;;5135401;27;20053;-69
2022/02/06 07:17:34;;;;;;;5.13;1.38;;;5.80;99.90;;;;;;5135819;27;20043;-69
2022/02/06 07:20:02;;;;;;;4.43;1.20;;;5.80;99.90;;;;;;5135822;27;20139;-69
2022/02/06 07:22:34;;;;;;;4.75;1.13;;;5.70;99.90;;;;;;5135678;27;20051;-69
2022/02/06 07:25:02;;;;;;;5.00;1.10;;;5.80;99.90;;;;;;5135108;27;20051;-69
2022/02/06 07:27:32;;;;;;;3.55;0.88;;;5.80;99.90;;;;;;5135555;27;20126;-69
2022/02/06 07:30:03;;;;;;;4.35;1.02;;;5.80;99.90;;;;;;5135667;27;20051;-68
2022/02/06 07:32:32;;;;;;;4.30;1.00;;;5.80;99.90;;;;;;5135897;27;20063;-68
2022/02/06 07:34:59;;;;;;;5.80;1.27;;;5.90;99.90;;;;;;5135137;27;20555;-69
2022/02/06 07:37:26;;;;;;;5.13;0.93;;;5.80;99.90;;;;;;5135480;27;20051;-69
2022/02/06 07:39:55;;;;;;;9.90;1.73;;;5.80;99.90;;;;;;5136175;27;20130;-69
2022/02/06 07:42:22;;;;;;;6.72;1.42;;;5.80;99.90;;;;;;5135600;27;20043;-69
2022/02/06 07:44:49;;;;;;;4.72;1.50;;;5.80;99.90;;;;;;5135191;27;20082;-69
2022/02/06 07:47:19;;;;;;;5.10;1.25;;;5.80;99.90;;;;;;5135092;27;20047;-69
2022/02/06 07:49:48;;;;;;;3.67;1.50;;;5.90;99.90;;;;;;5135527;27;20051;-69
2022/02/06 07:52:17;;;;;;;10.55;1.58;;;6.00;99.90;;;;;;5135145;27;20601;-69
2022/02/06 07:54:44;;;;;;;5.00;0.98;;;5.90;99.90;;;;;;5134770;27;20138;-69
2022/02/06 07:57:13;;;;;;;9.57;1.83;;;5.90;99.90;;;;;;5135074;27;20134;-69
2022/02/06 07:59:40;;;;;;;10.95;1.20;;;5.90;99.90;;;;;;5135444;27;20130;-69
2022/02/06 08:02:08;;;;;;;7.18;1.00;;;5.80;99.90;;;;;;5135028;27;20457;-69
2022/02/06 08:04:35;;;;;;;5.88;0.82;;;5.80;99.90;;;;;;5135168;27;20148;-69
2022/02/06 08:07:03;;;;;;;7.47;1.00;;;5.90;99.90;;;;;;5134488;27;20126;-68
2022/02/06 08:09:44;;;;;;;4.85;1.17;;;6.00;99.90;;;;;;5134845;27;20082;-68
2022/02/06 08:12:14;;;;;;;8.98;1.52;;;6.00;99.90;;;;;;5135144;27;20069;-68
2022/02/06 08:14:51;;;;;;;4.88;1.10;;;6.00;99.90;;;;;;5134838;27;20055;-68
2022/02/06 08:17:19;;;;;;;5.72;1.40;;;6.10;99.90;;;;;;5135280;27;20059;-68
2022/02/06 08:19:47;;;;;;;10.15;2.30;;;6.20;99.90;;;;;;5134910;27;20582;-68
2022/02/06 08:22:14;;;;;;;5.25;1.10;;;6.20;99.90;;;;;;5134907;27;20130;-68
2022/02/06 08:24:40;;;;;;;4.75;0.98;;;6.30;99.90;;;;;;5134286;27;20055;-68
2022/02/06 08:27:07;;;;;;;4.07;0.93;;;6.30;99.90;;;;;;5134455;27;20130;-67
2022/02/06 08:29:38;;;;;;;9.10;1.77;;;6.30;99.90;;;;;;5134668;27;20135;-67
2022/02/06 08:32:06;;;;;;;4.20;1.10;;;6.30;99.90;;;;;;5134545;27;20754;-67
2022/02/06 08:34:33;;;;;;;4.20;1.05;;;6.30;99.90;;;;;;5134436;27;20057;-67
2022/02/06 08:37:02;;;;;;;6.20;1.13;;;6.30;99.90;;;;;;5134374;27;20130;-67
2022/02/06 08:39:30;;;;;;;5.05;1.10;;;6.30;99.90;;;;;;5134558;27;20049;-67
2022/02/06 08:41:57;;;;;;;5.68;1.10;;;6.40;99.90;;;;;;5134454;27;20039;-67
2022/02/06 08:44:23;;;;;;;8.20;1.35;;;6.30;99.90;;;;;;5134300;27;20138;-67
2022/02/06 08:46:52;;;;;;;10.75;1.45;;;6.30;99.90;;;;;;5134247;27;20090;-67
2022/02/06 08:49:19;;;;;;;17.25;2.83;;;6.30;99.90;;;;;;5134305;27;20135;-67
2022/02/06 08:51:46;;;;;;;4.97;1.17;;;6.40;99.90;;;;;;5134314;27;20168;-67
2022/02/06 08:54:13;;;;;;;4.53;1.15;;;6.30;99.90;;;;;;5134097;27;20043;-68
2022/02/06 08:56:40;;;;;;;3.05;1.17;;;6.30;99.90;;;;;;5133987;27;20126;-67
2022/02/06 08:59:07;;;;;;;6.47;1.42;;;6.30;99.90;;;;;;5134296;27;20054;-67
2022/02/06 09:01:34;;;;;;;4.70;1.40;;;6.30;99.90;;;;;;5133892;27;20047;-68
2022/02/06 09:04:03;;;;;;;5.40;1.35;;;6.40;99.90;;;;;;5133932;27;20122;-68
2022/02/06 09:06:30;;;;;;;9.23;1.42;;;6.40;99.90;;;;;;5133769;27;20451;-68
2022/02/06 09:08:59;;;;;;;6.15;1.50;;;6.40;99.90;;;;;;5133819;27;20499;-68
2022/02/06 09:11:28;;;;;;;4.93;1.25;;;6.40;99.90;;;;;;5133969;27;20148;-68
2022/02/06 09:13:56;;;;;;;3.00;0.70;;;6.40;99.90;;;;;;5133461;27;20047;-68
2022/02/06 09:16:23;;;;;;;3.33;1.10;;;6.40;99.90;;;;;;5133302;27;20457;-68
2022/02/06 09:18:50;;;;;;;6.00;1.20;;;6.40;99.90;;;;;;5133930;27;20411;-68
2022/02/06 09:21:21;;;;;;;5.82;1.20;;;6.40;99.90;;;;;;5133844;27;20134;-68
2022/02/06 09:23:48;;;;;;;5.25;1.30;;;6.50;99.90;;;;;;5133617;27;20057;-68
2022/02/06 09:26:15;;;;;;;7.63;1.60;;;6.50;99.90;;;;;;5133488;27;20512;-68
2022/02/06 09:28:43;;;;;;;6.30;1.02;;;6.50;99.90;;;;;;5133674;27;20503;-68
2022/02/06 09:31:10;;;;;;;7.55;1.10;;;6.60;99.90;;;;;;5133447;27;20312;-68
2022/02/06 09:36:03;;;;;;;5.47;1.23;;;6.60;99.90;;;;;;5133589;27;20414;-68
2022/02/06 09:38:31;;;;;;;6.50;1.25;;;6.60;99.90;;;;;;5133374;27;20078;-68
2022/02/06 09:40:58;;;;;;;4.00;0.80;;;6.80;99.90;;;;;;5133360;27;20055;-68
2022/02/06 09:43:25;;;;;;;5.97;1.60;;;6.60;99.90;;;;;;5133009;27;20100;-68
2022/02/06 09:45:53;;;;;;;11.23;1.27;;;6.60;99.90;;;;;;5132728;27;20047;-68
2022/02/06 09:48:20;;;;;;;4.18;0.70;;;6.50;99.90;;;;;;5132989;27;20138;-68
2022/02/06 09:50:47;;;;;;;4.40;0.95;;;6.30;99.90;;;;;;5132836;27;20062;-68
2022/02/06 09:53:14;;;;;;;5.82;1.02;;;6.20;99.90;;;;;;5132944;27;20130;-68
2022/02/06 09:55:46;;;;;;;4.20;1.48;;;6.20;99.90;;;;;;5132638;27;20134;-67
2022/02/06 09:58:28;;;;;;;9.90;1.55;;;6.20;99.90;;;;;;5132879;27;20506;-67
2022/02/06 10:00:55;;;;;;;4.85;1.17;;;6.20;99.90;;;;;;5132833;27;20146;-67
2022/02/06 10:03:24;;;;;;;7.70;1.05;;;6.10;99.90;;;;;;5132839;27;20112;-67
2022/02/06 10:05:51;;;;;;;4.15;1.20;;;6.00;99.90;;;;;;5132715;27;20089;-67
2022/02/06 10:08:28;;;;;;;5.60;1.73;;;5.90;99.90;;;;;;5133191;27;20129;-68
2022/02/06 10:11:03;;;;;;;4.38;1.20;;;5.90;99.90;;;;;;5133167;27;20055;-69
2022/02/06 10:13:34;;;;;;;4.18;1.25;;;5.80;99.90;;;;;;5132657;27;20129;-69
2022/02/06 10:16:01;;;;;;;10.45;1.48;;;5.80;99.90;;;;;;5132972;27;20232;-69
2022/02/06 10:18:29;;;;;;;4.07;1.00;;;5.80;99.90;;;;;;5132979;27;20475;-69
2022/02/06 10:20:56;;;;;;;4.95;1.10;;;5.70;99.90;;;;;;5132918;27;20058;-69
2022/02/06 10:23:31;;;;;;;4.20;1.00;;;5.70;99.90;;;;;;5132605;27;20138;-69
2022/02/06 10:26:07;;;;;;;4.53;1.33;;;5.70;99.90;;;;;;5132653;28;20627;-69
2022/02/06 10:28:37;;;;;;;9.02;1.45;;;5.80;99.90;;;;;;5132771;28;20062;-69
2022/02/06 10:31:07;;;;;;;4.15;1.35;;;5.80;99.90;;;;;;5132477;28;20074;-69
2022/02/06 10:33:45;;;;;;;6.28;1.23;;;5.80;99.90;;;;;;5132391;27;20125;-69
2022/02/06 10:36:13;;;;;;;5.72;1.10;;;5.80;99.90;;;;;;5132401;28;20125;-69
2022/02/06 10:38:40;;;;;;;1.88;0.80;;;5.70;99.90;;;;;;5133108;27;20126;-69
2022/02/06 10:41:11;;;;;;;4.63;1.23;;;5.60;99.90;;;;;;5132555;28;20074;-69
2022/02/06 10:43:40;;;;;;;5.85;1.40;;;5.50;99.90;;;;;;5132703;27;20054;-68
2022/02/06 10:46:11;;;;;;;2.30;0.82;;;5.40;99.90;;;;;;5133537;27;20126;-68
2022/02/06 10:48:45;;;;;;;5.47;1.07;;;5.30;99.90;;;;;;5137238;27;20051;-69
2022/02/06 10:51:36;;;;;;;6.70;1.60;;;5.20;99.90;;;;;;5136775;27;20134;-68
2022/02/06 10:54:04;;;;;;;3.47;1.23;;;5.20;99.90;;;;;;5136584;27;20496;-68
2022/02/06 10:56:34;;;;;;;6.97;1.20;;;5.20;99.90;;;;;;5136712;27;20141;-68
2022/02/06 10:59:03;;;;;;;7.87;1.43;;;5.20;99.90;;;;;;5136715;27;20051;-68
2022/02/06 11:01:31;;;;;;;4.03;1.13;;;5.30;99.90;;;;;;5136384;27;20130;-68
2022/02/06 11:04:14;;;;;;;7.20;1.60;;;5.30;99.90;;;;;;5136588;27;20066;-70
2022/02/06 11:06:45;;;;;;;4.73;1.10;;;5.40;99.90;;;;;;5136918;27;20051;-68
2022/02/06 11:09:26;;;;;;;5.30;1.30;;;5.50;99.90;;;;;;5136490;27;20074;-68
2022/02/06 11:11:59;;;;;;;4.47;1.60;;;5.70;99.90;;;;;;5136234;27;20539;-68
2022/02/06 11:14:29;;;;;;;4.10;1.23;;;5.70;99.90;;;;;;5136054;27;20044;-68
2022/02/06 11:16:57;;;;;;;9.77;1.48;;;5.70;99.90;;;;;;5136516;27;20050;-68
2022/02/06 11:19:25;;;;;;;7.07;1.88;;;5.80;99.90;;;;;;5136277;27;20471;-68
2022/02/06 11:22:07;;;;;;;3.90;1.45;;;5.90;99.90;;;;;;5136221;27;20096;-68
2022/02/06 11:24:37;;;;;;;6.32;1.25;;;5.90;99.90;;;;;;5136149;27;20411;-68
2022/02/06 11:27:07;;;;;;;7.88;1.13;;;6.00;99.90;;;;;;5136029;27;20120;-68
2022/02/06 11:29:34;;;;;;;3.15;1.02;;;6.10;99.90;;;;;;5136138;27;20565;-69
2022/02/06 11:32:01;;;;;;;4.68;0.88;;;6.10;99.90;;;;;;5136223;27;20040;-69
2022/02/06 11:34:29;;;;;;;3.70;1.10;;;6.20;99.90;;;;;;5141717;27;20129;-69
2022/02/06 11:45:42;;;;;;;4.20;1.02;;;6.00;99.90;;;;;;5138340;27;20510;-68
2022/02/06 11:48:14;;;;;;;5.20;1.00;;;5.90;99.90;;;;;;5135911;27;20100;-69
2022/02/06 11:50:48;;;;;;;3.42;0.90;;;5.80;99.90;;;;;;5135778;27;20051;-69
2022/02/06 11:53:26;;;;;;;0.98;0.45;;;5.80;99.90;;;;;;5141807;27;20050;-69
2022/02/06 11:55:55;;;;;;;2.83;1.02;;;5.70;99.90;;;;;;5139204;27;20078;-69
2022/02/06 11:58:29;;;;;;;4.45;0.90;;;5.50;99.90;;;;;;5135371;27;20043;-68
2022/02/06 12:01:23;;;;;;;4.13;0.90;;;5.30;99.90;;;;;;5135583;27;20468;-68
2022/02/06 12:03:53;;;;;;;2.92;1.00;;;5.30;99.90;;;;;;5135340;27;20079;-68
2022/02/06 12:06:21;;;;;;;2.83;1.00;;;5.30;99.90;;;;;;5135737;27;20415;-66
2022/02/06 12:09:15;;;;;;;3.13;1.10;;;5.30;99.90;;;;;;5135511;27;20437;-66
2022/02/06 12:12:02;;;;;;;4.20;1.10;;;5.30;99.90;;;;;;5135235;27;20085;-66
2022/02/06 12:14:36;;;;;;;1.73;0.50;;;5.30;99.90;;;;;;5134750;27;20051;-65
2022/02/06 12:17:09;;;;;;;3.80;1.10;;;5.40;99.90;;;;;;5135091;27;20047;-66
2022/02/06 12:19:36;;;;;;;2.33;1.00;;;5.20;99.90;;;;;;5134892;27;20497;-66
2022/02/06 12:22:38;;;;;;;3.63;0.97;;;5.20;99.90;;;;;;5134999;27;20087;-66
2022/02/06 12:25:30;;;;;;;4.63;1.07;;;5.20;99.90;;;;;;5134720;27;20103;-66
2022/02/06 12:28:27;;;;;;;2.33;0.75;;;5.20;99.90;;;;;;5134636;27;20047;-66
2022/02/06 12:31:19;;;;;;;6.68;1.20;;;5.20;99.90;;;;;;5134855;27;20054;-66
2022/02/06 12:33:55;;;;;;;4.13;0.90;;;5.20;99.90;;;;;;5134852;27;20062;-66
2022/02/06 12:37:07;;;;;;;2.55;0.98;;;5.10;99.90;;;;;;5134462;27;20360;-66
2022/02/06 12:39:35;;;;;;;10.55;2.38;;;5.30;99.90;;;;;;5134394;27;20046;-66
2022/02/06 12:42:04;;;;;;;7.15;1.50;;;5.30;99.90;;;;;;5134298;27;20047;-66
2022/02/06 12:44:32;;;;;;;6.93;1.42;;;5.40;99.90;;;;;;5134481;27;20104;-66
2022/02/06 12:47:02;;;;;;;7.27;2.00;;;5.30;99.90;;;;;;5134130;27;20130;-66
2022/02/06 12:49:30;;;;;;;6.53;2.28;;;5.30;99.90;;;;;;5134441;27;20101;-66
2022/02/06 12:51:58;;;;;;;3.40;1.55;;;5.30;99.90;;;;;;5134316;27;20131;-66
2022/02/06 12:54:26;;;;;;;6.90;0.90;;;5.40;99.90;;;;;;5134394;27;20087;-65
2022/02/06 12:56:56;;;;;;;5.33;1.00;;;5.30;99.90;;;;;;5133927;27;20054;-66
2022/02/06 12:59:27;;;;;;;3.57;1.20;;;5.10;99.90;;;;;;5134438;27;20130;-66
2022/02/06 13:01:55;;;;;;;2.30;0.93;;;5.10;99.90;;;;;;5134527;27;20059;-65
2022/02/06 13:04:28;;;;;;;3.50;1.10;;;5.10;99.90;;;;;;5134581;27;20097;-66
2022/02/06 13:07:00;;;;;;;1.25;0.50;;;5.10;99.90;;;;;;5133827;27;20141;-65
2022/02/06 13:09:31;;;;;;;6.57;1.00;;;5.20;99.90;;;;;;5133705;27;20167;-65
2022/02/06 13:12:05;;;;;;;2.15;0.68;;;5.10;99.90;;;;;;5134401;27;20094;-65
2022/02/06 13:14:49;;;;;;;3.47;1.13;;;5.20;99.90;;;;;;5134175;27;20054;-65
2022/02/06 13:17:26;;;;;;;4.20;1.20;;;5.20;99.90;;;;;;5134299;27;20111;-65
2022/02/06 13:20:07;;;;;;;6.00;1.13;;;5.10;99.90;;;;;;5134223;27;20059;-65
2022/02/06 13:22:50;;;;;;;6.90;1.10;;;5.10;99.90;;;;;;5133808;27;20563;-66
2022/02/06 13:25:43;;;;;;;3.10;0.60;;;5.00;99.90;;;;;;5133102;27;20049;-65
2022/02/06 13:28:27;;;;;;;5.90;1.27;;;5.10;99.90;;;;;;5133604;27;20092;-66
2022/02/06 13:31:18;;;;;;;5.03;1.10;;;5.00;99.90;;;;;;5133838;27;20047;-66
2022/02/06 13:33:56;;;;;;;3.17;1.10;;;5.00;99.90;;;;;;5134028;27;20055;-66
2022/02/06 13:36:35;;;;;;;3.23;1.00;;;5.10;99.90;;;;;;5134144;27;20096;-65
2022/02/06 13:39:08;;;;;;;4.07;0.77;;;4.90;99.90;;;;;;5137016;27;20051;-66
2022/02/06 13:41:35;;;;;;;3.50;1.03;;;5.00;99.90;;;;;;5137041;27;20054;-66
2022/02/06 13:44:04;;;;;;;3.10;1.23;;;4.90;99.90;;;;;;5135877;27;20057;-66
2022/02/06 13:46:36;;;;;;;3.37;1.03;;;4.90;99.90;;;;;;5133562;27;20483;-66
2022/02/06 13:49:05;;;;;;;4.43;1.13;;;4.90;99.90;;;;;;5133356;27;20043;-66
2022/02/06 13:51:41;;;;;;;2.30;0.63;;;4.90;99.90;;;;;;5133650;27;20047;-66
2022/02/06 13:54:08;;;;;;;3.57;1.53;;;4.90;99.90;;;;;;5133167;27;20507;-66
2022/02/06 13:56:36;;;;;;;2.80;1.00;;;4.80;99.90;;;;;;5133274;27;20066;-66
2022/02/06 13:59:05;;;;;;;3.50;1.07;;;4.80;99.90;;;;;;5133311;27;20115;-67
2022/02/06 14:01:41;;;;;;;4.77;1.20;;;4.90;99.90;;;;;;5133369;27;20134;-67
2022/02/06 14:04:18;;;;;;;3.47;0.90;;;4.80;99.90;;;;;;5133159;27;20082;-67
2022/02/06 14:06:53;;;;;;;2.80;0.80;;;4.80;99.90;;;;;;5133054;27;20135;-67
2022/02/06 14:09:28;;;;;;;2.30;0.63;;;4.80;99.90;;;;;;5133104;27;20502;-68
2022/02/06 14:12:03;;;;;;;3.50;0.93;;;4.80;99.90;;;;;;5133213;27;20511;-67
2022/02/06 14:14:32;;;;;;;1.40;0.60;;;4.70;99.90;;;;;;5133058;27;20057;-67
2022/02/06 14:17:00;;;;;;;3.00;0.97;;;4.80;99.90;;;;;;5132915;27;20103;-67
2022/02/06 14:19:36;;;;;;;5.07;1.30;;;4.70;99.90;;;;;;5133159;27;20059;-67
2022/02/06 14:22:05;;;;;;;2.63;1.00;;;4.70;99.90;;;;;;5133308;27;20062;-67
2022/02/06 14:24:48;;;;;;;3.20;1.03;;;4.70;99.90;;;;;;5132795;27;20146;-67
2022/02/06 14:27:27;;;;;;;3.93;1.10;;;4.70;99.90;;;;;;5133221;28;20043;-67
2022/02/06 14:30:00;;;;;;;2.67;0.80;;;4.70;99.90;;;;;;5132750;28;20137;-67
2022/02/06 14:32:27;;;;;;;5.07;1.27;;;4.70;99.90;;;;;;5133030;28;20126;-67
2022/02/06 14:34:59;;;;;;;1.57;0.73;;;4.70;99.90;;;;;;5132867;28;20079;-68
2022/02/06 14:37:30;;;;;;;2.83;1.17;;;4.70;99.90;;;;;;5133029;28;20079;-67
2022/02/06 14:40:03;;;;;;;2.20;0.73;;;4.70;99.90;;;;;;5133230;28;20047;-68
2022/02/06 14:42:31;;;;;;;2.57;0.80;;;4.70;99.90;;;;;;5132918;28;20107;-68
2022/02/06 14:45:11;;;;;;;2.55;0.77;;;4.80;99.90;;;;;;5132419;28;20051;-67
2022/02/06 14:47:38;;;;;;;6.57;1.73;;;4.80;99.90;;;;;;5132261;28;20467;-70
2022/02/06 14:50:17;;;;;;;1.43;0.67;;;4.90;99.90;;;;;;5132157;27;20047;-70
2022/02/06 14:52:45;;;;;;;1.53;0.40;;;4.90;99.90;;;;;;5132165;27;20048;-69
2022/02/06 14:55:13;;;;;;;1.57;0.40;;;4.90;99.90;;;;;;5132370;28;20396;-70